BWA416 TTPP-TBPB
Flight info
| Callsign | BWA416 |
|---|---|
| Flight time | 0h 36m |
| Altitude | 25000 |
| Route | POS UR515 BGI |
| Aircraft | B38M/M-SDE1FGHILORVWXY/HB1 |
Departure
| Time | 2026-05-04 21:49 |
|---|---|
| Airport | Piarco International Airport (TTPP) |
Arrival
| Time | 2026-05-04 22:25 |
|---|---|
| Airport | Grantley Adams International Airport (TBPB) |
| Time | Latitude | Longitude | Altitude | Speed | Heading |
|---|---|---|---|---|---|
| 2026-05-04 20:58 | 10.59995 | -61.33800 | 52 ft | 0 kts | 292° |
| 2026-05-04 21:36 | 10.59993 | -61.33794 | 46 ft | 4 kts | 292° |
| 2026-05-04 21:37 | 10.59983 | -61.33769 | 51 ft | 4 kts | 289° |
| 2026-05-04 21:37 | 10.59978 | -61.33744 | 46 ft | 4 kts | 257° |
| 2026-05-04 21:37 | 10.59984 | -61.33734 | 49 ft | 1 kts | 180° |
| 2026-05-04 21:41 | 10.59976 | -61.33734 | 52 ft | 2 kts | 180° |
| 2026-05-04 21:42 | 10.59952 | -61.33734 | 50 ft | 5 kts | 179° |
| 2026-05-04 21:42 | 10.59902 | -61.33733 | 52 ft | 9 kts | 179° |
| 2026-05-04 21:42 | 10.59839 | -61.33734 | 52 ft | 10 kts | 180° |
| 2026-05-04 21:42 | 10.59763 | -61.33734 | 52 ft | 11 kts | 179° |
| 2026-05-04 21:43 | 10.59710 | -61.33771 | 52 ft | 10 kts | 261° |
| 2026-05-04 21:43 | 10.59707 | -61.33851 | 52 ft | 12 kts | 268° |
| 2026-05-04 21:43 | 10.59707 | -61.33943 | 52 ft | 14 kts | 270° |
| 2026-05-04 21:43 | 10.59706 | -61.34048 | 52 ft | 16 kts | 269° |
| 2026-05-04 21:44 | 10.59706 | -61.34164 | 52 ft | 17 kts | 270° |
| 2026-05-04 21:44 | 10.59707 | -61.34288 | 51 ft | 18 kts | 271° |
| 2026-05-04 21:44 | 10.59706 | -61.34412 | 52 ft | 14 kts | 269° |
| 2026-05-04 21:44 | 10.59694 | -61.34505 | 52 ft | 13 kts | 237° |
| 2026-05-04 21:45 | 10.59642 | -61.34528 | 52 ft | 1 kts | 184° |
| 2026-05-04 21:45 | 10.59641 | -61.34528 | 52 ft | 0 kts | 184° |
| 2026-05-04 21:46 | 10.59636 | -61.34528 | 52 ft | 2 kts | 183° |
| 2026-05-04 21:46 | 10.59615 | -61.34529 | 49 ft | 4 kts | 182° |
| 2026-05-04 21:46 | 10.59578 | -61.34530 | 52 ft | 6 kts | 181° |
| 2026-05-04 21:47 | 10.59535 | -61.34518 | 49 ft | 6 kts | 117° |
| 2026-05-04 21:47 | 10.59534 | -61.34498 | 46 ft | 0 kts | 88° |
| 2026-05-04 21:48 | 10.59535 | -61.34479 | 48 ft | 13 kts | 88° |
| 2026-05-04 21:48 | 10.59535 | -61.34109 | 49 ft | 90 kts | 90° |
| 2026-05-04 21:48 | 10.59540 | -61.33242 | 53 ft | 152 kts | 89° |
| 2026-05-04 21:48 | 10.59580 | -61.32068 | 425 ft | 175 kts | 89° |
| 2026-05-04 21:49 | 10.59613 | -61.30804 | 1101 ft | 181 kts | 86° |
| 2026-05-04 21:49 | 10.59677 | -61.29554 | 2107 ft | 175 kts | 85° |
| 2026-05-04 21:49 | 10.59731 | -61.28252 | 2637 ft | 196 kts | 88° |
| 2026-05-04 21:49 | 10.59780 | -61.26782 | 3187 ft | 217 kts | 88° |
| 2026-05-04 21:50 | 10.59828 | -61.25183 | 3822 ft | 235 kts | 87° |
| 2026-05-04 21:50 | 10.59919 | -61.23512 | 4726 ft | 238 kts | 85° |
| 2026-05-04 21:50 | 10.60441 | -61.21878 | 5434 ft | 257 kts | 54° |
| 2026-05-04 21:50 | 10.61886 | -61.20752 | 6211 ft | 268 kts | 25° |
| 2026-05-04 21:51 | 10.63595 | -61.20027 | 7053 ft | 273 kts | 32° |
| 2026-05-04 21:51 | 10.65157 | -61.18911 | 7797 ft | 275 kts | 39° |
| 2026-05-04 21:51 | 10.66709 | -61.17752 | 8678 ft | 280 kts | 39° |
| 2026-05-04 21:51 | 10.68299 | -61.16590 | 9537 ft | 283 kts | 39° |
| 2026-05-04 21:52 | 10.69918 | -61.15416 | 10287 ft | 291 kts | 39° |
| 2026-05-04 21:52 | 10.71622 | -61.14191 | 10684 ft | 310 kts | 39° |
| 2026-05-04 21:52 | 10.73437 | -61.12892 | 11011 ft | 328 kts | 38° |
| 2026-05-04 21:52 | 10.75343 | -61.11532 | 11464 ft | 340 kts | 39° |
| 2026-05-04 21:53 | 10.77281 | -61.10149 | 12209 ft | 341 kts | 38° |
| 2026-05-04 21:53 | 10.79209 | -61.08772 | 12903 ft | 345 kts | 38° |
| 2026-05-04 21:53 | 10.81184 | -61.07360 | 13601 ft | 348 kts | 39° |
| 2026-05-04 21:53 | 10.83177 | -61.05938 | 14238 ft | 351 kts | 38° |
| 2026-05-04 21:54 | 10.85184 | -61.04504 | 14881 ft | 354 kts | 38° |
| 2026-05-04 21:54 | 10.87204 | -61.03061 | 15509 ft | 356 kts | 38° |
| 2026-05-04 21:54 | 10.89232 | -61.01611 | 16120 ft | 358 kts | 38° |
| 2026-05-04 21:54 | 10.91280 | -61.00146 | 16697 ft | 362 kts | 37° |
| 2026-05-04 21:55 | 10.93348 | -60.98666 | 17255 ft | 365 kts | 37° |
| 2026-05-04 21:55 | 10.95396 | -60.97202 | 17821 ft | 367 kts | 37° |
| 2026-05-04 21:55 | 10.97493 | -60.95702 | 18355 ft | 370 kts | 37° |
| 2026-05-04 21:55 | 10.99607 | -60.94190 | 18812 ft | 373 kts | 37° |
| 2026-05-04 21:56 | 11.01745 | -60.92660 | 19221 ft | 378 kts | 36° |
| 2026-05-04 21:56 | 11.03905 | -60.91114 | 19643 ft | 381 kts | 36° |
| 2026-05-04 21:56 | 11.06084 | -60.89553 | 20058 ft | 385 kts | 36° |
| 2026-05-04 21:56 | 11.08291 | -60.87973 | 20498 ft | 388 kts | 36° |
| 2026-05-04 21:57 | 11.10513 | -60.86382 | 20909 ft | 393 kts | 36° |
| 2026-05-04 21:57 | 11.12716 | -60.84804 | 21390 ft | 394 kts | 35° |
| 2026-05-04 21:57 | 11.14976 | -60.83203 | 21743 ft | 400 kts | 34° |
| 2026-05-04 21:57 | 11.17277 | -60.81611 | 22235 ft | 401 kts | 34° |
| 2026-05-04 21:58 | 11.19601 | -60.79998 | 22525 ft | 408 kts | 34° |
| 2026-05-04 21:58 | 11.21955 | -60.78363 | 22926 ft | 411 kts | 34° |
| 2026-05-04 21:58 | 11.24335 | -60.76708 | 23261 ft | 417 kts | 34° |
| 2026-05-04 21:58 | 11.26708 | -60.75058 | 23665 ft | 419 kts | 33° |
| 2026-05-04 21:59 | 11.29129 | -60.73374 | 23990 ft | 423 kts | 33° |
| 2026-05-04 21:59 | 11.31529 | -60.71705 | 24376 ft | 424 kts | 32° |
| 2026-05-04 21:59 | 11.33963 | -60.70011 | 24743 ft | 425 kts | 32° |
| 2026-05-04 21:59 | 11.36420 | -60.68302 | 24937 ft | 431 kts | 32° |
| 2026-05-04 22:00 | 11.38919 | -60.66564 | 24952 ft | 439 kts | 32° |
| 2026-05-04 22:00 | 11.41459 | -60.64794 | 24958 ft | 447 kts | 33° |
| 2026-05-04 22:00 | 11.44047 | -60.62993 | 24965 ft | 454 kts | 33° |
| 2026-05-04 22:00 | 11.46676 | -60.61162 | 24972 ft | 460 kts | 32° |
| 2026-05-04 22:01 | 11.49322 | -60.59317 | 24980 ft | 462 kts | 33° |
| 2026-05-04 22:01 | 11.51939 | -60.57494 | 24982 ft | 462 kts | 33° |
| 2026-05-04 22:01 | 11.54597 | -60.55641 | 24982 ft | 463 kts | 33° |
| 2026-05-04 22:01 | 11.57246 | -60.53795 | 24982 ft | 462 kts | 33° |
| 2026-05-04 22:02 | 11.59905 | -60.51943 | 24982 ft | 462 kts | 32° |
| 2026-05-04 22:02 | 11.62558 | -60.50095 | 24984 ft | 462 kts | 32° |
| 2026-05-04 22:02 | 11.65213 | -60.48243 | 24985 ft | 462 kts | 32° |
| 2026-05-04 22:02 | 11.67872 | -60.46390 | 24985 ft | 462 kts | 33° |
| 2026-05-04 22:03 | 11.70526 | -60.44540 | 24985 ft | 463 kts | 33° |
| 2026-05-04 22:03 | 11.73142 | -60.42715 | 24983 ft | 457 kts | 32° |
| 2026-05-04 22:03 | 11.75717 | -60.40918 | 24838 ft | 442 kts | 33° |
| 2026-05-04 22:03 | 11.78242 | -60.39156 | 24285 ft | 440 kts | 32° |
| 2026-05-04 22:04 | 11.80763 | -60.37397 | 23734 ft | 439 kts | 33° |
| 2026-05-04 22:04 | 11.83280 | -60.35640 | 23074 ft | 438 kts | 34° |
| 2026-05-04 22:04 | 11.85793 | -60.33885 | 22470 ft | 435 kts | 34° |
| 2026-05-04 22:04 | 11.88281 | -60.32147 | 21905 ft | 432 kts | 34° |
| 2026-05-04 22:05 | 11.90745 | -60.30425 | 21353 ft | 428 kts | 34° |
| 2026-05-04 22:05 | 11.93158 | -60.28739 | 20810 ft | 424 kts | 34° |
| 2026-05-04 22:05 | 11.95581 | -60.27046 | 20257 ft | 420 kts | 34° |
| 2026-05-04 22:05 | 11.97984 | -60.25366 | 19735 ft | 417 kts | 35° |
| 2026-05-04 22:06 | 12.00367 | -60.23699 | 19211 ft | 414 kts | 35° |
| 2026-05-04 22:06 | 12.02735 | -60.22044 | 18696 ft | 411 kts | 35° |
| 2026-05-04 22:06 | 12.05089 | -60.20397 | 18170 ft | 408 kts | 35° |
| 2026-05-04 22:06 | 12.07420 | -60.18766 | 17614 ft | 404 kts | 36° |
| 2026-05-04 22:07 | 12.09697 | -60.17173 | 17113 ft | 400 kts | 36° |
| 2026-05-04 22:07 | 12.11980 | -60.15574 | 16620 ft | 396 kts | 36° |
| 2026-05-04 22:07 | 12.14291 | -60.14053 | 16046 ft | 396 kts | 28° |
| 2026-05-04 22:07 | 12.16777 | -60.12871 | 15592 ft | 392 kts | 27° |
| 2026-05-04 22:08 | 12.19219 | -60.11662 | 15162 ft | 388 kts | 28° |
| 2026-05-04 22:08 | 12.21628 | -60.10450 | 14720 ft | 385 kts | 29° |
| 2026-05-04 22:08 | 12.24008 | -60.09241 | 14398 ft | 378 kts | 29° |
| 2026-05-04 22:08 | 12.26340 | -60.08050 | 14158 ft | 370 kts | 29° |
| 2026-05-04 22:09 | 12.28583 | -60.06903 | 13971 ft | 361 kts | 30° |
| 2026-05-04 22:09 | 12.30796 | -60.05770 | 13805 ft | 351 kts | 30° |
| 2026-05-04 22:09 | 12.32954 | -60.04665 | 13592 ft | 342 kts | 30° |
| 2026-05-04 22:09 | 12.35071 | -60.03581 | 13239 ft | 339 kts | 30° |
| 2026-05-04 22:10 | 12.37175 | -60.02503 | 12849 ft | 337 kts | 30° |
| 2026-05-04 22:10 | 12.39266 | -60.01433 | 12428 ft | 336 kts | 30° |
| 2026-05-04 22:10 | 12.41340 | -60.00369 | 12044 ft | 334 kts | 30° |
| 2026-05-04 22:10 | 12.43400 | -59.99313 | 11771 ft | 328 kts | 30° |
| 2026-05-04 22:11 | 12.45415 | -59.98281 | 11620 ft | 319 kts | 30° |
| 2026-05-04 22:11 | 12.47369 | -59.97278 | 11490 ft | 309 kts | 30° |
| 2026-05-04 22:11 | 12.49239 | -59.96319 | 11343 ft | 299 kts | 30° |
| 2026-05-04 22:11 | 12.51067 | -59.95382 | 11153 ft | 289 kts | 30° |
| 2026-05-04 22:12 | 12.52836 | -59.94474 | 10924 ft | 281 kts | 30° |
| 2026-05-04 22:12 | 12.54581 | -59.93579 | 10607 ft | 280 kts | 30° |
| 2026-05-04 22:12 | 12.56314 | -59.92690 | 10300 ft | 279 kts | 30° |
| 2026-05-04 22:12 | 12.58038 | -59.91804 | 10040 ft | 277 kts | 30° |
| 2026-05-04 22:13 | 12.59759 | -59.90921 | 9710 ft | 276 kts | 30° |
| 2026-05-04 22:13 | 12.61474 | -59.90042 | 9388 ft | 275 kts | 30° |
| 2026-05-04 22:13 | 12.63180 | -59.89166 | 9085 ft | 273 kts | 30° |
| 2026-05-04 22:13 | 12.64852 | -59.88307 | 8760 ft | 273 kts | 30° |
| 2026-05-04 22:14 | 12.66540 | -59.87440 | 8460 ft | 271 kts | 30° |
| 2026-05-04 22:14 | 12.68228 | -59.86571 | 8141 ft | 271 kts | 30° |
| 2026-05-04 22:14 | 12.69909 | -59.85708 | 7845 ft | 270 kts | 30° |
| 2026-05-04 22:14 | 12.71580 | -59.84850 | 7567 ft | 267 kts | 30° |
| 2026-05-04 22:15 | 12.73216 | -59.84010 | 7464 ft | 258 kts | 30° |
| 2026-05-04 22:15 | 12.74790 | -59.83201 | 7346 ft | 248 kts | 30° |
| 2026-05-04 22:15 | 12.76299 | -59.82426 | 7190 ft | 238 kts | 30° |
| 2026-05-04 22:15 | 12.77758 | -59.81675 | 6921 ft | 233 kts | 31° |
| 2026-05-04 22:16 | 12.79188 | -59.80940 | 6618 ft | 233 kts | 31° |
| 2026-05-04 22:16 | 12.80637 | -59.80195 | 6324 ft | 233 kts | 31° |
| 2026-05-04 22:16 | 12.82074 | -59.79455 | 6064 ft | 230 kts | 30° |
| 2026-05-04 22:16 | 12.83507 | -59.78719 | 5750 ft | 230 kts | 30° |
| 2026-05-04 22:17 | 12.84932 | -59.77986 | 5461 ft | 229 kts | 30° |
| 2026-05-04 22:17 | 12.86351 | -59.77255 | 5201 ft | 227 kts | 30° |
| 2026-05-04 22:17 | 12.87761 | -59.76530 | 4925 ft | 226 kts | 30° |
| 2026-05-04 22:17 | 12.89163 | -59.75808 | 4644 ft | 225 kts | 30° |
| 2026-05-04 22:18 | 12.90534 | -59.75103 | 4389 ft | 223 kts | 30° |
| 2026-05-04 22:18 | 12.91894 | -59.74403 | 4229 ft | 213 kts | 30° |
| 2026-05-04 22:18 | 12.93175 | -59.73745 | 4159 ft | 200 kts | 31° |
| 2026-05-04 22:18 | 12.94389 | -59.73120 | 4042 ft | 190 kts | 31° |
| 2026-05-04 22:19 | 12.95550 | -59.72522 | 3763 ft | 187 kts | 30° |
| 2026-05-04 22:19 | 12.96719 | -59.71920 | 3450 ft | 187 kts | 31° |
| 2026-05-04 22:19 | 12.97872 | -59.71323 | 3158 ft | 185 kts | 30° |
| 2026-05-04 22:19 | 12.98995 | -59.70747 | 3000 ft | 182 kts | 31° |
| 2026-05-04 22:20 | 13.00139 | -59.70157 | 2985 ft | 185 kts | 30° |
| 2026-05-04 22:20 | 13.01292 | -59.69562 | 2998 ft | 185 kts | 31° |
| 2026-05-04 22:20 | 13.02281 | -59.68780 | 2951 ft | 177 kts | 59° |
| 2026-05-04 22:20 | 13.02748 | -59.67622 | 2981 ft | 178 kts | 73° |
| 2026-05-04 22:21 | 13.03192 | -59.66431 | 3007 ft | 180 kts | 64° |
| 2026-05-04 22:21 | 13.03795 | -59.65310 | 2994 ft | 179 kts | 69° |
| 2026-05-04 22:21 | 13.04158 | -59.64090 | 2694 ft | 180 kts | 78° |
| 2026-05-04 22:21 | 13.04373 | -59.62842 | 2364 ft | 177 kts | 83° |
| 2026-05-04 22:22 | 13.04523 | -59.61606 | 2048 ft | 171 kts | 84° |
| 2026-05-04 22:22 | 13.04702 | -59.60444 | 1801 ft | 160 kts | 78° |
| 2026-05-04 22:22 | 13.04956 | -59.59409 | 1613 ft | 145 kts | 77° |
| 2026-05-04 22:22 | 13.05212 | -59.58420 | 1376 ft | 142 kts | 77° |
| 2026-05-04 22:23 | 13.05464 | -59.57427 | 1293 ft | 144 kts | 77° |
| 2026-05-04 22:23 | 13.05713 | -59.56430 | 1238 ft | 144 kts | 77° |
| 2026-05-04 22:23 | 13.05946 | -59.55439 | 1160 ft | 147 kts | 78° |
| 2026-05-04 22:23 | 13.06189 | -59.54425 | 1034 ft | 145 kts | 77° |
| 2026-05-04 22:24 | 13.06428 | -59.53426 | 856 ft | 144 kts | 77° |
| 2026-05-04 22:24 | 13.06672 | -59.52436 | 651 ft | 143 kts | 76° |
| 2026-05-04 22:24 | 13.06938 | -59.51415 | 474 ft | 150 kts | 78° |
| 2026-05-04 22:24 | 13.07176 | -59.50379 | 228 ft | 148 kts | 78° |
| 2026-05-04 22:25 | 13.07412 | -59.49419 | 178 ft | 128 kts | 76° |
| 2026-05-04 22:25 | 13.07586 | -59.48700 | 178 ft | 73 kts | 77° |
| 2026-05-04 22:25 | 13.07657 | -59.48395 | 175 ft | 19 kts | 75° |
| 2026-05-04 22:25 | 13.07730 | -59.48341 | 175 ft | 14 kts | 349° |
| 2026-05-04 22:26 | 13.07804 | -59.48359 | 178 ft | 9 kts | 343° |
| 2026-05-04 22:26 | 13.07848 | -59.48387 | 179 ft | 8 kts | 293° |
| 2026-05-04 22:26 | 13.07846 | -59.48445 | 179 ft | 9 kts | 258° |
| 2026-05-04 22:26 | 13.07829 | -59.48514 | 180 ft | 10 kts | 256° |
| 2026-05-04 22:27 | 13.07810 | -59.48592 | 180 ft | 11 kts | 256° |
| 2026-05-04 22:27 | 13.07799 | -59.48649 | 180 ft | 6 kts | 277° |
| 2026-05-04 22:27 | 13.07830 | -59.48672 | 180 ft | 6 kts | 348° |
| 2026-05-04 22:27 | 13.07878 | -59.48683 | 180 ft | 7 kts | 346° |
| 2026-05-04 22:28 | 13.07892 | -59.48687 | 180 ft | 0 kts | 345° |